Time;durP1;ratioP1;P1;durP2;ratioP2;P2;SDS_P1;SDS_P2;PMS_P1;PMS_P2;Temp;Humidity;BMP_temperature;BMP_pressure;BME280_temperature;BME280_humidity;BME280_pressure;Samples;Min_cycle;Max_cycle;Signal;HPM_P1;HPM_P2
2022/11/22 09:03:34;;;;;;;3.43;0.90;;;7.10;99.90;;;;;;3301104;26;20248;-73
2022/11/22 09:06:02;;;;;;;5.13;0.80;;;7.30;99.90;;;;;;4935946;29;20209;-72
2022/11/22 09:08:29;;;;;;;2.47;0.77;;;7.40;99.90;;;;;;4935991;29;20248;-72
2022/11/22 09:10:59;;;;;;;3.37;1.33;;;7.40;99.90;;;;;;4936157;29;20209;-72
2022/11/22 09:13:26;;;;;;;2.20;0.67;;;7.30;99.90;;;;;;4935051;29;20209;-72
2022/11/22 09:15:53;;;;;;;1.73;0.73;;;7.30;99.90;;;;;;4935515;29;20584;-71
2022/11/22 09:18:20;;;;;;;3.10;0.50;;;7.20;99.90;;;;;;4935607;29;20235;-71
2022/11/22 09:20:48;;;;;;;0.73;0.50;;;7.20;99.90;;;;;;4935504;29;20580;-71
2022/11/22 09:23:15;;;;;;;1.43;0.50;;;7.10;99.90;;;;;;4934945;29;20213;-72
2022/11/22 09:25:42;;;;;;;0.83;0.50;;;7.10;99.90;;;;;;4935268;29;20244;-71
2022/11/22 09:28:09;;;;;;;1.93;0.57;;;7.10;99.90;;;;;;4935217;29;20241;-71
2022/11/22 09:30:35;;;;;;;2.50;0.73;;;7.10;99.90;;;;;;4935216;29;20213;-72
2022/11/22 09:33:02;;;;;;;4.47;0.70;;;7.10;99.90;;;;;;4935172;29;20239;-72
2022/11/22 09:35:29;;;;;;;4.43;1.00;;;7.10;99.90;;;;;;4935600;29;20222;-72
2022/11/22 09:37:57;;;;;;;1.63;0.50;;;7.20;99.90;;;;;;4935419;29;20265;-74
2022/11/22 09:40:24;;;;;;;3.80;0.80;;;7.20;99.90;;;;;;4935272;29;20660;-72
2022/11/22 09:43:05;;;;;;;3.40;0.80;;;7.10;99.90;;;;;;4935111;29;20211;-72
2022/11/22 09:45:59;;;;;;;0.90;0.47;;;7.20;99.90;;;;;;4935342;29;20211;-72
2022/11/22 09:48:39;;;;;;;4.27;0.80;;;7.30;99.90;;;;;;4936013;29;20247;-73
2022/11/22 09:51:10;;;;;;;2.40;0.80;;;7.40;99.90;;;;;;4938918;29;20218;-72
2022/11/22 09:53:45;;;;;;;4.73;0.73;;;7.30;99.90;;;;;;4939158;29;20213;-72
2022/11/22 09:56:14;;;;;;;2.33;0.80;;;7.30;99.90;;;;;;4939147;29;20204;-71
2022/11/22 09:58:47;;;;;;;0.57;0.40;;;7.30;99.90;;;;;;4938752;29;20229;-71
2022/11/22 10:01:20;;;;;;;1.60;0.60;;;7.30;99.90;;;;;;4939110;29;20556;-72
2022/11/22 10:03:51;;;;;;;1.93;0.60;;;7.40;99.90;;;;;;4938695;29;20251;-71
2022/11/22 10:06:25;;;;;;;0.73;0.50;;;7.50;99.90;;;;;;4939102;29;20208;-72
2022/11/22 10:09:03;;;;;;;1.33;0.77;;;7.60;99.90;;;;;;4938781;29;20247;-70
2022/11/22 10:11:36;;;;;;;1.00;0.60;;;7.60;99.90;;;;;;4938558;29;20216;-71
2022/11/22 10:14:09;;;;;;;1.50;0.50;;;7.60;99.90;;;;;;4938477;29;20231;-71
2022/11/22 10:16:40;;;;;;;2.27;0.50;;;7.70;99.90;;;;;;4938647;29;20209;-71
2022/11/22 10:19:15;;;;;;;1.87;0.43;;;7.70;99.90;;;;;;4938836;29;20243;-70
2022/11/22 10:21:42;;;;;;;1.00;0.60;;;7.90;99.90;;;;;;4938699;29;20208;-71
2022/11/22 10:24:15;;;;;;;2.37;0.60;;;8.00;99.90;;;;;;4938476;29;20213;-71
2022/11/22 10:26:42;;;;;;;1.00;0.43;;;8.10;99.90;;;;;;4938022;29;20552;-70
2022/11/22 10:29:22;;;;;;;4.50;0.60;;;8.20;99.90;;;;;;4937924;29;20240;-71
2022/11/22 10:31:59;;;;;;;2.23;0.30;;;8.20;99.90;;;;;;4938260;29;20220;-73
2022/11/22 10:34:39;;;;;;;2.43;0.60;;;8.10;99.90;;;;;;4937974;29;20575;-72
2022/11/22 10:37:14;;;;;;;2.10;0.40;;;8.10;99.90;;;;;;4937082;29;20537;-71
2022/11/22 10:40:05;;;;;;;2.63;0.53;;;8.30;99.90;;;;;;4937237;29;20603;-70
2022/11/22 10:42:51;;;;;;;0.67;0.30;;;8.30;99.90;;;;;;4927659;29;20261;-71
2022/11/22 10:45:24;;;;;;;0.43;0.40;;;8.50;99.90;;;;;;4928641;29;20216;-69
2022/11/22 10:48:01;;;;;;;1.90;0.33;;;8.60;99.90;;;;;;4929098;29;20660;-71
2022/11/22 10:50:35;;;;;;;4.13;0.47;;;8.70;99.90;;;;;;4928089;29;20209;-71
2022/11/22 10:53:10;;;;;;;0.70;0.30;;;8.70;99.90;;;;;;4932160;29;20578;-71
2022/11/22 10:55:49;;;;;;;0.50;0.40;;;8.80;99.90;;;;;;4934171;29;20213;-71
2022/11/22 10:58:26;;;;;;;0.30;0.30;;;9.00;99.90;;;;;;4927297;29;20893;-71
2022/11/22 11:00:59;;;;;;;1.13;0.60;;;8.90;99.90;;;;;;4926700;29;20204;-72
2022/11/22 11:03:30;;;;;;;0.60;0.33;;;8.90;99.90;;;;;;4931341;29;20217;-71
2022/11/22 11:06:04;;;;;;;1.17;0.57;;;8.90;99.90;;;;;;4929784;29;20300;-71
2022/11/22 11:08:37;;;;;;;0.60;0.30;;;8.90;99.90;;;;;;4922530;29;20242;-72
2022/11/22 11:11:05;;;;;;;1.03;0.40;;;8.80;99.90;;;;;;4933076;29;20209;-71
2022/11/22 11:13:35;;;;;;;0.73;0.40;;;8.70;99.90;;;;;;4929779;29;20220;-71
2022/11/22 11:16:06;;;;;;;2.73;0.40;;;8.70;99.90;;;;;;4926845;29;20216;-72
2022/11/22 11:18:40;;;;;;;1.63;0.60;;;8.70;99.90;;;;;;4929125;29;20229;-72
2022/11/22 11:21:07;;;;;;;1.10;0.60;;;8.60;99.90;;;;;;4929525;29;20218;-71
2022/11/22 11:23:34;;;;;;;1.27;0.30;;;8.50;99.90;;;;;;4933990;29;20205;-72
2022/11/22 11:26:21;;;;;;;0.87;0.30;;;8.50;99.90;;;;;;4924341;29;20219;-71
2022/11/22 11:28:48;;;;;;;0.50;0.40;;;8.50;99.90;;;;;;4922233;29;20256;-72
2022/11/22 11:31:17;;;;;;;2.17;0.70;;;8.30;99.90;;;;;;4925575;29;20219;-72
2022/11/22 11:33:45;;;;;;;4.30;0.50;;;8.20;99.90;;;;;;4932252;29;20209;-72
2022/11/22 11:36:16;;;;;;;1.10;0.60;;;8.10;99.90;;;;;;4930167;29;20280;-71
2022/11/22 11:38:57;;;;;;;1.27;0.40;;;8.20;99.90;;;;;;4924453;29;20229;-72
2022/11/22 11:41:28;;;;;;;1.33;0.50;;;8.00;99.90;;;;;;4937502;29;20211;-72
2022/11/22 11:43:57;;;;;;;1.83;0.40;;;8.10;99.90;;;;;;4930800;29;20215;-72
2022/11/22 11:46:26;;;;;;;1.63;0.20;;;8.10;99.90;;;;;;4928928;29;20300;-72
2022/11/22 11:48:54;;;;;;;1.40;0.40;;;8.00;99.90;;;;;;4924546;29;20241;-72
2022/11/22 11:51:25;;;;;;;1.43;0.50;;;7.90;99.90;;;;;;4924776;29;20220;-71
2022/11/22 11:53:59;;;;;;;0.60;0.30;;;8.00;99.90;;;;;;4929027;29;20210;-72
2022/11/22 11:56:45;;;;;;;4.27;0.63;;;7.90;99.90;;;;;;4927069;29;20680;-73
2022/11/22 11:59:16;;;;;;;0.93;0.50;;;8.00;99.90;;;;;;4920794;29;20236;-73
2022/11/22 12:01:50;;;;;;;0.63;0.43;;;8.10;99.90;;;;;;4931453;29;20212;-72
2022/11/22 12:04:22;;;;;;;0.93;0.63;;;8.30;99.90;;;;;;4931539;29;20312;-71
2022/11/22 12:06:55;;;;;;;1.00;0.40;;;8.50;99.90;;;;;;4925715;29;20856;-71
2022/11/22 12:09:28;;;;;;;1.57;0.30;;;8.60;99.90;;;;;;4932305;29;20676;-72
2022/11/22 12:12:02;;;;;;;1.83;0.43;;;8.60;99.90;;;;;;4929898;29;20213;-70
2022/11/22 12:14:30;;;;;;;2.00;0.40;;;8.70;99.90;;;;;;4927293;29;20217;-71
2022/11/22 12:17:02;;;;;;;0.67;0.30;;;8.60;99.90;;;;;;4927409;29;20214;-71
2022/11/22 12:19:36;;;;;;;0.57;0.33;;;8.60;99.90;;;;;;4917939;29;20224;-71
2022/11/22 12:22:13;;;;;;;0.57;0.30;;;8.70;99.90;;;;;;4929344;29;20214;-71
2022/11/22 12:24:46;;;;;;;1.63;0.20;;;8.60;99.90;;;;;;4924875;29;20207;-71
2022/11/22 12:27:14;;;;;;;0.40;0.30;;;8.80;99.90;;;;;;4930320;29;20656;-70
2022/11/22 12:29:43;;;;;;;3.07;0.37;;;8.80;99.90;;;;;;4931057;29;20248;-71
2022/11/22 12:32:18;;;;;;;1.37;0.40;;;8.80;99.90;;;;;;4925934;29;20212;-72
2022/11/22 12:34:51;;;;;;;0.87;0.40;;;9.00;99.90;;;;;;4916840;29;20541;-71
2022/11/22 12:37:23;;;;;;;0.40;0.30;;;9.10;99.90;;;;;;4916060;29;20215;-71
2022/11/22 12:39:55;;;;;;;0.60;0.40;;;9.30;99.90;;;;;;4916497;29;20724;-72
2022/11/22 12:42:29;;;;;;;0.90;0.40;;;9.30;99.90;;;;;;4917319;29;20210;-72
2022/11/22 12:45:00;;;;;;;0.30;0.30;;;9.30;99.90;;;;;;4917029;29;20208;-72
2022/11/22 12:47:31;;;;;;;0.60;0.37;;;9.20;99.90;;;;;;4916753;29;20217;-72
2022/11/22 12:50:03;;;;;;;0.40;0.30;;;9.20;99.90;;;;;;4917131;29;20247;-71
2022/11/22 12:52:33;;;;;;;0.40;0.40;;;9.20;99.90;;;;;;4916781;29;20568;-71
2022/11/22 12:55:04;;;;;;;0.93;0.50;;;9.20;99.90;;;;;;4916446;29;20736;-71
2022/11/22 12:57:38;;;;;;;1.17;0.80;;;9.00;99.90;;;;;;4916574;29;20209;-72
2022/11/22 13:00:13;;;;;;;1.60;0.90;;;9.10;99.90;;;;;;4919871;29;20228;-72
2022/11/22 13:02:46;;;;;;;2.53;1.33;;;9.00;99.90;;;;;;4923974;29;20251;-72
2022/11/22 13:05:17;;;;;;;0.57;0.33;;;9.00;99.90;;;;;;4924631;29;20224;-73
2022/11/22 13:07:52;;;;;;;1.40;0.50;;;8.80;99.90;;;;;;4925018;29;20288;-72
2022/11/22 13:10:31;;;;;;;0.47;0.40;;;8.90;99.90;;;;;;4924397;29;20243;-72
2022/11/22 13:13:01;;;;;;;1.50;0.60;;;8.90;99.90;;;;;;4924201;29;20622;-71
2022/11/22 13:15:30;;;;;;;0.80;0.53;;;8.80;99.90;;;;;;4923758;29;20686;-72
2022/11/22 13:17:58;;;;;;;1.53;1.07;;;8.70;99.90;;;;;;4924435;29;20208;-71
2022/11/22 13:20:26;;;;;;;1.70;0.97;;;8.80;99.90;;;;;;4924446;29;20209;-71
2022/11/22 13:23:06;;;;;;;1.63;0.80;;;8.80;99.90;;;;;;4927562;29;20200;-71
2022/11/22 13:25:53;;;;;;;2.43;0.57;;;8.90;99.90;;;;;;4929970;29;20230;-71
2022/11/22 13:28:25;;;;;;;2.67;1.00;;;8.90;99.90;;;;;;4928438;29;20226;-73
2022/11/22 13:31:07;;;;;;;1.70;1.13;;;8.80;99.90;;;;;;4927598;29;20208;-71
2022/11/22 13:33:36;;;;;;;3.20;1.60;;;8.80;99.90;;;;;;4927203;29;20288;-72
2022/11/22 13:36:35;;;;;;;1.77;0.97;;;8.80;99.90;;;;;;4928421;29;20201;-71
2022/11/22 13:39:05;;;;;;;2.10;1.33;;;9.10;99.90;;;;;;4927390;29;20228;-72
2022/11/22 13:41:39;;;;;;;0.60;0.60;;;9.30;99.90;;;;;;4928563;29;20201;-72
2022/11/22 13:44:38;;;;;;;0.93;0.70;;;9.40;99.90;;;;;;4927616;29;20224;-72
2022/11/22 13:47:20;;;;;;;2.23;0.70;;;9.50;99.90;;;;;;4907821;29;20227;-72
2022/11/22 13:49:47;;;;;;;1.40;0.70;;;9.60;99.90;;;;;;4938814;29;20245;-71
2022/11/22 13:52:51;;;;;;;2.07;1.20;;;9.50;99.90;;;;;;4938731;29;20216;-71
2022/11/22 13:55:31;;;;;;;2.17;0.80;;;9.50;99.90;;;;;;4938651;29;20220;-71
2022/11/22 13:58:50;;;;;;;1.47;0.60;;;9.40;99.90;;;;;;4938642;29;20205;-71
2022/11/22 14:01:50;;;;;;;1.97;0.90;;;9.40;99.90;;;;;;4938154;29;20268;-71
2022/11/22 14:04:42;;;;;;;1.17;0.30;;;9.40;99.90;;;;;;4950789;29;20220;-70
2022/11/22 14:07:37;;;;;;;0.80;0.40;;;9.40;99.90;;;;;;4953528;28;20211;-69
2022/11/22 14:10:20;;;;;;;3.70;0.77;;;9.40;99.90;;;;;;4956295;28;20251;-69
2022/11/22 14:13:15;;;;;;;2.20;0.60;;;9.30;99.90;;;;;;4942217;28;20691;-71
2022/11/22 14:15:54;;;;;;;2.77;0.60;;;9.40;99.90;;;;;;4929546;29;20247;-69
2022/11/22 14:18:48;;;;;;;1.43;0.30;;;9.20;99.90;;;;;;4931754;29;20311;-72
2022/11/22 14:21:27;;;;;;;0.60;0.27;;;9.30;99.90;;;;;;4931070;29;20213;-71
2022/11/22 14:24:03;;;;;;;5.50;0.80;;;9.40;99.90;;;;;;4928432;29;20777;-71
2022/11/22 14:26:40;;;;;;;1.20;0.30;;;9.40;99.90;;;;;;4929472;29;20216;-71
2022/11/22 14:29:48;;;;;;;1.13;0.57;;;9.40;99.90;;;;;;4928280;29;20338;-71
2022/11/22 14:32:18;;;;;;;4.27;0.80;;;9.40;99.90;;;;;;4934481;29;20207;-71
2022/11/22 14:35:17;;;;;;;2.97;0.40;;;9.50;99.90;;;;;;4925216;29;20220;-71
2022/11/22 14:37:46;;;;;;;0.77;0.30;;;9.50;99.90;;;;;;4928744;29;20205;-71
2022/11/22 14:40:16;;;;;;;2.63;0.70;;;9.50;99.90;;;;;;4935104;29;20221;-72
2022/11/22 14:42:58;;;;;;;3.87;0.70;;;9.40;99.90;;;;;;4932422;29;20209;-71
2022/11/22 14:45:29;;;;;;;2.20;0.83;;;9.50;99.90;;;;;;4927253;29;20292;-72
2022/11/22 14:48:03;;;;;;;4.93;0.90;;;9.50;99.90;;;;;;4926990;29;20209;-71
2022/11/22 14:50:34;;;;;;;2.87;0.50;;;9.40;99.90;;;;;;4934285;29;20232;-70
2022/11/22 14:53:24;;;;;;;0.50;0.30;;;9.50;99.90;;;;;;4933666;29;20200;-72
2022/11/22 14:55:56;;;;;;;0.60;0.50;;;9.40;99.90;;;;;;4930285;29;20213;-71
2022/11/22 14:58:28;;;;;;;3.43;0.37;;;9.50;99.90;;;;;;4931250;29;20232;-71
2022/11/22 15:01:22;;;;;;;2.93;0.80;;;9.50;99.90;;;;;;4931271;29;20209;-71
2022/11/22 15:04:11;;;;;;;2.30;0.83;;;9.40;99.90;;;;;;4923882;29;20532;-71
2022/11/22 15:06:46;;;;;;;1.33;0.30;;;9.40;99.90;;;;;;4933886;29;20200;-71
2022/11/22 15:09:41;;;;;;;0.63;0.40;;;9.40;99.90;;;;;;4933097;29;20236;-71
2022/11/22 15:12:39;;;;;;;2.60;0.40;;;9.30;99.90;;;;;;4930389;29;20639;-71
2022/11/22 15:15:29;;;;;;;2.07;0.50;;;9.30;99.90;;;;;;4930563;29;20734;-71
2022/11/22 15:18:06;;;;;;;2.00;0.53;;;9.30;99.90;;;;;;4930675;29;20564;-71
2022/11/22 15:20:37;;;;;;;1.43;0.60;;;9.30;99.90;;;;;;4932495;29;20666;-71
2022/11/22 15:23:15;;;;;;;0.97;0.60;;;9.30;99.90;;;;;;4932001;29;20235;-72
2022/11/22 15:25:42;;;;;;;1.43;0.30;;;9.20;99.90;;;;;;4931801;29;20211;-71
2022/11/22 15:28:17;;;;;;;2.90;0.30;;;9.20;99.90;;;;;;4932490;29;20587;-72
2022/11/22 15:30:45;;;;;;;1.80;0.40;;;9.10;99.90;;;;;;4933141;29;20733;-72
2022/11/22 15:33:26;;;;;;;0.87;0.40;;;9.10;99.90;;;;;;4932432;29;20213;-73
2022/11/22 15:36:27;;;;;;;4.77;0.60;;;9.00;99.90;;;;;;4931760;29;20210;-72
2022/11/22 15:38:56;;;;;;;1.03;0.40;;;8.90;99.90;;;;;;4896681;29;20620;-71
2022/11/22 15:41:26;;;;;;;1.57;0.40;;;8.80;99.90;;;;;;4933743;29;20217;-71
2022/11/22 15:43:54;;;;;;;1.10;0.33;;;8.80;99.90;;;;;;4929298;29;20212;-71
2022/11/22 15:46:24;;;;;;;3.67;0.57;;;8.80;99.90;;;;;;4930727;29;20212;-72
2022/11/22 15:48:53;;;;;;;3.90;0.57;;;8.80;99.90;;;;;;4929628;29;20327;-72
2022/11/22 15:51:23;;;;;;;4.00;1.10;;;8.80;99.90;;;;;;4928886;29;20213;-72
2022/11/22 15:54:17;;;;;;;2.27;0.83;;;8.80;99.90;;;;;;4934029;29;20209;-71
2022/11/22 15:56:47;;;;;;;6.03;0.53;;;8.80;99.90;;;;;;4932035;29;20205;-72
2022/11/22 15:59:24;;;;;;;2.90;0.90;;;8.70;99.90;;;;;;4931992;29;20231;-71
2022/11/22 16:01:53;;;;;;;2.07;0.40;;;8.80;99.90;;;;;;4926181;29;20597;-72
2022/11/22 16:04:23;;;;;;;2.27;0.70;;;8.80;99.90;;;;;;4933647;29;20224;-72
2022/11/22 16:06:51;;;;;;;4.03;1.20;;;8.80;99.90;;;;;;4931437;29;20537;-73
2022/11/22 16:09:30;;;;;;;3.07;0.70;;;8.80;99.90;;;;;;4932354;29;20233;-72
2022/11/22 16:12:01;;;;;;;3.53;0.60;;;8.70;99.90;;;;;;4932551;29;20267;-72
2022/11/22 16:14:48;;;;;;;2.33;0.50;;;8.70;99.90;;;;;;4924234;29;20208;-72
2022/11/22 16:17:27;;;;;;;4.37;1.30;;;8.80;99.90;;;;;;4922912;29;20210;-72
2022/11/22 16:20:27;;;;;;;4.63;0.60;;;8.80;99.90;;;;;;4929754;29;20248;-72
2022/11/22 16:23:25;;;;;;;1.87;0.60;;;8.80;99.90;;;;;;4932025;29;20219;-71
2022/11/22 16:25:59;;;;;;;5.73;1.13;;;8.90;99.90;;;;;;4918758;29;20204;-71
2022/11/22 16:28:34;;;;;;;3.87;0.87;;;8.90;99.90;;;;;;4932255;29;20229;-71
2022/11/22 16:31:05;;;;;;;3.87;0.80;;;9.00;99.90;;;;;;4927188;29;20268;-72
2022/11/22 16:33:31;;;;;;;1.27;0.60;;;9.00;99.90;;;;;;4930679;29;20209;-71
2022/11/22 16:36:00;;;;;;;3.87;0.60;;;9.10;99.90;;;;;;4932214;29;20217;-72
2022/11/22 16:38:27;;;;;;;2.73;0.90;;;9.10;99.90;;;;;;4928619;29;20591;-72
2022/11/22 16:40:58;;;;;;;4.13;0.90;;;9.20;99.90;;;;;;4930838;29;20208;-72
2022/11/22 16:43:28;;;;;;;3.90;0.90;;;9.10;99.90;;;;;;4931210;29;20205;-73
2022/11/22 16:45:55;;;;;;;2.63;0.73;;;9.10;99.90;;;;;;4928081;29;20572;-72
2022/11/22 16:48:23;;;;;;;6.03;1.17;;;9.10;99.90;;;;;;4932465;29;20233;-71
2022/11/22 16:50:56;;;;;;;5.37;1.10;;;9.10;99.90;;;;;;4929272;29;20245;-72
2022/11/22 16:53:24;;;;;;;4.57;1.50;;;9.20;99.90;;;;;;4929196;29;20241;-72
2022/11/22 16:55:51;;;;;;;4.67;1.37;;;9.20;99.90;;;;;;4933561;29;20224;-71
2022/11/22 16:58:22;;;;;;;9.07;1.43;;;9.30;99.90;;;;;;4926543;29;20235;-71
2022/11/22 17:00:51;;;;;;;5.00;1.27;;;9.30;99.90;;;;;;4933176;29;20215;-71
2022/11/22 17:03:21;;;;;;;5.93;1.57;;;9.30;99.90;;;;;;4919930;29;20292;-71
2022/11/22 17:05:48;;;;;;;6.70;1.30;;;9.30;99.90;;;;;;4929757;29;20208;-71
2022/11/22 17:08:17;;;;;;;5.47;1.07;;;9.30;99.90;;;;;;4926380;29;20261;-71
2022/11/22 17:10:46;;;;;;;2.97;0.70;;;9.30;99.90;;;;;;4929202;29;20707;-71
2022/11/22 17:13:18;;;;;;;4.50;0.87;;;9.40;99.90;;;;;;4929949;29;20210;-71
2022/11/22 17:15:46;;;;;;;3.57;0.80;;;9.40;99.90;;;;;;4923987;29;20223;-71
2022/11/22 17:18:13;;;;;;;4.97;0.80;;;9.50;99.90;;;;;;4926477;29;20217;-71
2022/11/22 17:20:40;;;;;;;5.40;0.90;;;9.50;99.90;;;;;;4923391;29;20202;-72
2022/11/22 17:23:13;;;;;;;6.37;1.13;;;9.50;99.90;;;;;;4929745;29;20219;-70
2022/11/22 17:25:39;;;;;;;5.50;1.20;;;9.50;99.90;;;;;;4929628;29;20601;-71
2022/11/22 17:28:06;;;;;;;6.80;1.37;;;9.60;99.90;;;;;;4928507;29;20205;-71
2022/11/22 17:30:33;;;;;;;6.63;0.70;;;9.50;99.90;;;;;;4928074;29;20725;-71
2022/11/22 17:33:01;;;;;;;4.73;0.97;;;9.60;99.90;;;;;;4929028;29;20213;-71
2022/11/22 17:35:28;;;;;;;3.67;1.20;;;9.60;99.90;;;;;;4925208;29;20300;-70
2022/11/22 17:37:56;;;;;;;4.10;1.13;;;9.60;99.90;;;;;;4930375;29;20678;-71
2022/11/22 17:40:22;;;;;;;3.10;0.87;;;9.60;99.90;;;;;;4929501;29;20263;-71
2022/11/22 17:42:49;;;;;;;6.63;1.00;;;9.60;99.90;;;;;;4930782;29;20205;-72
2022/11/22 17:45:16;;;;;;;4.77;1.00;;;9.50;99.90;;;;;;4929395;29;20215;-71
2022/11/22 17:47:43;;;;;;;2.97;0.83;;;9.60;99.90;;;;;;4925258;29;20231;-71
2022/11/22 17:50:11;;;;;;;5.53;0.80;;;9.60;99.90;;;;;;4930628;29;20241;-72
2022/11/22 17:52:38;;;;;;;1.93;0.60;;;9.60;99.90;;;;;;4931589;29;20205;-70
2022/11/22 17:55:06;;;;;;;2.47;0.93;;;9.50;99.90;;;;;;4930145;29;20682;-71
2022/11/22 17:57:34;;;;;;;6.80;0.70;;;9.50;99.90;;;;;;4930145;29;20215;-71
2022/11/22 18:00:02;;;;;;;3.40;0.60;;;9.60;99.90;;;;;;4931276;29;20721;-72
2022/11/22 18:02:29;;;;;;;5.10;1.20;;;9.50;99.90;;;;;;4927778;29;20579;-71
2022/11/22 18:04:56;;;;;;;6.03;0.83;;;9.50;99.90;;;;;;4924562;29;20209;-71
2022/11/22 18:07:27;;;;;;;3.40;1.10;;;9.40;99.90;;;;;;4930511;29;20224;-72
2022/11/22 18:09:54;;;;;;;6.20;0.97;;;9.40;99.90;;;;;;4924054;29;20605;-71
2022/11/22 18:12:21;;;;;;;5.63;0.80;;;9.40;99.90;;;;;;4925521;29;20577;-71
2022/11/22 18:14:48;;;;;;;7.17;1.40;;;9.30;99.90;;;;;;4935636;29;20215;-71
2022/11/22 18:17:15;;;;;;;6.53;1.53;;;9.20;99.90;;;;;;4929931;29;20220;-71
2022/11/22 18:19:42;;;;;;;3.00;0.80;;;9.20;99.90;;;;;;4932326;29;20319;-71
2022/11/22 18:22:09;;;;;;;3.87;0.80;;;9.10;99.90;;;;;;4927760;29;20205;-71
2022/11/22 18:24:37;;;;;;;3.30;0.87;;;9.10;99.90;;;;;;4937464;29;20213;-71
2022/11/22 18:27:04;;;;;;;6.47;1.10;;;9.10;99.90;;;;;;4937059;29;20239;-73
2022/11/22 18:29:31;;;;;;;7.53;0.80;;;9.10;99.90;;;;;;4936280;29;20229;-71
2022/11/22 18:31:58;;;;;;;1.83;0.70;;;9.00;99.90;;;;;;4937595;29;20244;-71
2022/11/22 18:34:26;;;;;;;8.30;1.73;;;9.00;99.90;;;;;;4937892;29;20215;-72
2022/11/22 18:36:53;;;;;;;6.07;0.83;;;9.00;99.90;;;;;;4938234;29;20219;-71
2022/11/22 18:39:21;;;;;;;5.63;1.20;;;9.00;99.90;;;;;;4938376;29;20233;-71
2022/11/22 18:41:49;;;;;;;6.30;0.90;;;9.00;99.90;;;;;;4938534;29;20239;-70
2022/11/22 18:44:16;;;;;;;4.40;1.10;;;9.00;99.90;;;;;;4938221;29;20216;-70
2022/11/22 18:46:43;;;;;;;5.50;1.10;;;9.00;99.90;;;;;;4936922;29;20201;-71
2022/11/22 18:49:10;;;;;;;4.33;1.33;;;9.00;99.90;;;;;;4935565;29;20228;-71
2022/11/22 18:51:37;;;;;;;4.90;1.00;;;9.00;99.90;;;;;;4935651;29;20228;-72
2022/11/22 18:54:04;;;;;;;3.87;0.77;;;8.90;99.90;;;;;;4935661;29;20205;-72
2022/11/22 18:56:31;;;;;;;4.00;0.90;;;8.80;99.90;;;;;;4935684;29;20202;-72
2022/11/22 18:58:59;;;;;;;4.03;0.90;;;8.80;99.90;;;;;;4935418;29;20221;-71
2022/11/22 19:01:26;;;;;;;11.63;0.83;;;8.90;99.90;;;;;;4935407;29;20201;-72
2022/11/22 19:03:52;;;;;;;9.30;0.90;;;8.80;99.90;;;;;;4935399;29;20213;-72
2022/11/22 19:06:19;;;;;;;6.97;1.13;;;8.80;99.90;;;;;;4937427;29;20208;-72
2022/11/22 19:08:47;;;;;;;5.20;0.63;;;8.80;99.90;;;;;;4937463;29;20565;-71
2022/11/22 19:11:15;;;;;;;4.73;1.30;;;8.80;99.90;;;;;;4937373;29;20247;-72
2022/11/22 19:13:43;;;;;;;4.17;0.90;;;8.80;99.90;;;;;;4937425;29;20249;-71
2022/11/22 19:16:14;;;;;;;3.17;1.20;;;8.90;99.90;;;;;;4937284;29;20668;-71
2022/11/22 19:18:42;;;;;;;7.53;1.10;;;8.90;99.90;;;;;;4937189;29;20233;-72
2022/11/22 19:21:10;;;;;;;4.80;1.50;;;8.80;99.90;;;;;;4936067;29;20621;-72
2022/11/22 19:23:37;;;;;;;7.90;1.20;;;8.80;99.90;;;;;;4937503;29;20560;-71
2022/11/22 19:26:06;;;;;;;4.20;1.37;;;8.80;99.90;;;;;;4937695;29;20209;-72
2022/11/22 19:28:33;;;;;;;2.90;1.60;;;8.70;99.90;;;;;;4937423;29;20228;-71
2022/11/22 19:31:03;;;;;;;2.00;0.90;;;8.70;99.90;;;;;;4937520;29;20235;-70
2022/11/22 19:33:32;;;;;;;6.33;0.90;;;8.80;99.90;;;;;;4937704;29;20249;-71
2022/11/22 19:36:01;;;;;;;5.40;1.50;;;8.70;99.90;;;;;;4937444;29;20235;-71
2022/11/22 19:38:28;;;;;;;4.87;1.07;;;8.60;99.90;;;;;;4937037;29;20232;-71
2022/11/22 19:40:55;;;;;;;7.53;1.20;;;8.60;99.90;;;;;;4936931;29;20668;-71
2022/11/22 19:43:22;;;;;;;6.10;0.87;;;8.60;99.90;;;;;;4937430;29;20244;-73
2022/11/22 19:45:49;;;;;;;5.27;1.13;;;8.70;99.90;;;;;;4937503;29;20209;-72
2022/11/22 19:48:17;;;;;;;3.53;1.10;;;8.70;99.90;;;;;;4937069;29;20245;-71
2022/11/22 19:50:46;;;;;;;4.67;1.37;;;8.60;99.90;;;;;;4937092;29;20719;-74
2022/11/22 19:53:12;;;;;;;1.77;1.00;;;8.70;99.90;;;;;;4936955;29;20672;-71
2022/11/22 19:55:40;;;;;;;1.73;0.87;;;8.70;99.90;;;;;;4937250;29;20215;-71
2022/11/22 19:58:07;;;;;;;6.23;0.87;;;8.70;99.90;;;;;;4936814;29;20690;-72
2022/11/22 20:00:33;;;;;;;4.37;0.73;;;8.70;99.90;;;;;;4936917;29;20219;-70
2022/11/22 20:03:00;;;;;;;9.37;1.27;;;8.70;99.90;;;;;;4936757;29;20558;-72
2022/11/22 20:05:31;;;;;;;7.57;1.37;;;8.80;99.90;;;;;;4936830;29;20616;-71
2022/11/22 20:07:59;;;;;;;8.13;1.23;;;8.80;99.90;;;;;;4936842;29;20620;-71
2022/11/22 20:10:26;;;;;;;7.00;1.03;;;8.80;99.90;;;;;;4936832;29;20661;-72
2022/11/22 20:12:53;;;;;;;8.87;1.20;;;8.80;99.90;;;;;;4936841;29;20208;-71
2022/11/22 20:15:20;;;;;;;6.47;1.07;;;8.80;99.90;;;;;;4936845;29;20212;-71
2022/11/22 20:17:46;;;;;;;3.67;0.83;;;8.70;99.90;;;;;;4936538;29;20299;-71
2022/11/22 20:20:13;;;;;;;11.20;0.80;;;8.80;99.90;;;;;;4936399;29;20224;-73
2022/11/22 20:22:40;;;;;;;3.87;1.13;;;8.80;99.90;;;;;;4936843;29;20209;-71
2022/11/22 20:25:09;;;;;;;1.70;1.00;;;8.90;99.90;;;;;;4936534;29;20218;-72
2022/11/22 20:27:36;;;;;;;4.17;1.13;;;8.80;99.90;;;;;;4936695;29;20292;-71
2022/11/22 20:30:03;;;;;;;6.40;0.80;;;8.80;99.90;;;;;;4936584;29;20224;-72
2022/11/22 20:32:29;;;;;;;7.43;1.00;;;8.80;99.90;;;;;;4935783;29;20244;-72
2022/11/22 20:34:56;;;;;;;3.43;0.90;;;8.80;99.90;;;;;;4936319;29;20315;-71
2022/11/22 20:37:23;;;;;;;4.63;0.90;;;8.80;99.90;;;;;;4936438;29;20213;-72
2022/11/22 20:39:50;;;;;;;7.60;1.10;;;8.80;99.90;;;;;;4936081;29;20328;-72
2022/11/22 20:42:18;;;;;;;10.00;1.10;;;8.80;99.90;;;;;;4936260;29;20209;-72
2022/11/22 20:44:45;;;;;;;5.10;0.97;;;8.80;99.90;;;;;;4936398;29;20235;-72
2022/11/22 20:47:12;;;;;;;5.37;0.90;;;8.80;99.90;;;;;;4936098;29;20771;-71
2022/11/22 20:49:38;;;;;;;5.53;1.13;;;8.70;99.90;;;;;;4935871;29;20228;-72
2022/11/22 20:52:07;;;;;;;4.73;0.70;;;8.70;99.90;;;;;;4936085;29;20729;-71
2022/11/22 20:54:33;;;;;;;3.70;0.90;;;8.70;99.90;;;;;;4936028;29;20209;-71
2022/11/22 20:57:00;;;;;;;2.73;0.67;;;8.80;99.90;;;;;;4936141;29;20311;-71
2022/11/22 20:59:28;;;;;;;1.40;0.87;;;8.80;99.90;;;;;;4936350;29;20232;-72
2022/11/22 21:01:55;;;;;;;4.23;1.00;;;8.80;99.90;;;;;;4935865;29;20660;-71
2022/11/22 21:04:22;;;;;;;3.80;0.97;;;8.90;99.90;;;;;;4935861;29;20224;-71
2022/11/22 21:06:49;;;;;;;7.17;1.07;;;8.90;99.90;;;;;;4936218;29;20209;-72
2022/11/22 21:09:15;;;;;;;3.63;1.10;;;8.90;99.90;;;;;;4936009;29;20595;-72
2022/11/22 21:11:44;;;;;;;2.33;0.90;;;9.00;99.90;;;;;;4935876;29;20262;-72
2022/11/22 21:14:11;;;;;;;5.10;1.00;;;8.90;99.90;;;;;;4935560;29;20216;-72
2022/11/22 21:16:39;;;;;;;4.30;0.63;;;8.90;99.90;;;;;;4935577;29;20213;-72
2022/11/22 21:19:06;;;;;;;4.90;1.13;;;9.00;99.90;;;;;;4935701;29;20229;-71
2022/11/22 21:21:36;;;;;;;2.30;0.80;;;9.00;99.90;;;;;;4935901;29;20227;-73
2022/11/22 21:24:04;;;;;;;5.00;1.03;;;9.10;99.90;;;;;;4935801;29;20208;-72
2022/11/22 21:26:32;;;;;;;1.20;0.50;;;9.10;99.90;;;;;;4935801;29;20211;-73
2022/11/22 21:28:59;;;;;;;6.90;0.90;;;9.00;99.90;;;;;;4935534;29;20588;-72
2022/11/22 21:31:26;;;;;;;3.47;1.10;;;9.10;99.90;;;;;;4935648;29;20232;-72
2022/11/22 21:33:55;;;;;;;2.80;0.90;;;9.00;99.90;;;;;;4935846;29;20212;-72
2022/11/22 21:36:21;;;;;;;3.10;1.07;;;9.10;99.90;;;;;;4935803;29;20209;-72
2022/11/22 21:38:48;;;;;;;3.97;0.70;;;9.10;99.90;;;;;;4935513;29;20592;-72
2022/11/22 21:41:17;;;;;;;4.57;0.90;;;9.00;99.90;;;;;;4935583;29;20240;-71
2022/11/22 21:43:44;;;;;;;3.13;0.70;;;9.00;99.90;;;;;;4936737;29;20219;-72
2022/11/22 21:46:10;;;;;;;2.40;0.70;;;9.00;99.90;;;;;;4939275;29;20215;-72
2022/11/22 21:48:37;;;;;;;4.10;1.00;;;9.00;99.90;;;;;;4939177;29;20700;-71
2022/11/22 21:51:06;;;;;;;5.47;1.10;;;9.00;99.90;;;;;;4939656;29;20247;-71
2022/11/22 21:53:32;;;;;;;5.27;1.00;;;9.10;99.90;;;;;;4939679;29;20209;-71
2022/11/22 21:56:02;;;;;;;3.33;0.93;;;9.10;99.90;;;;;;4939726;29;20208;-71
2022/11/22 21:58:29;;;;;;;3.63;0.80;;;9.00;99.90;;;;;;4939224;29;20239;-72
2022/11/22 22:01:00;;;;;;;2.43;0.90;;;9.10;99.90;;;;;;4939049;29;20706;-72
2022/11/22 22:03:28;;;;;;;3.43;0.80;;;9.10;99.90;;;;;;4939123;29;20217;-72
2022/11/22 22:05:56;;;;;;;4.13;0.77;;;9.10;99.90;;;;;;4939085;29;20316;-72
2022/11/22 22:08:28;;;;;;;3.20;1.30;;;9.20;99.90;;;;;;4939342;29;20235;-73
2022/11/22 22:10:57;;;;;;;3.83;0.87;;;9.20;99.90;;;;;;4939225;29;20660;-72
2022/11/22 22:13:24;;;;;;;5.00;1.00;;;9.20;99.90;;;;;;4939247;29;20564;-72
2022/11/22 22:15:55;;;;;;;3.10;0.60;;;9.30;99.90;;;;;;4939272;29;20219;-72
2022/11/22 22:18:22;;;;;;;1.63;0.60;;;9.20;99.90;;;;;;4938629;29;20230;-72
